sensor_id;sensor_type;location;lat;lon;timestamp;P1;durP1;ratioP1;P2;durP2;ratioP2
31680;SDS011;18281;51.364;9.566;2023-03-23T00:01:02;1.63;;;0.90;;
31680;SDS011;18281;51.364;9.566;2023-03-23T00:03:29;2.78;;;1.00;;
31680;SDS011;18281;51.364;9.566;2023-03-23T00:05:56;0.88;;;0.65;;
31680;SDS011;18281;51.364;9.566;2023-03-23T00:08:29;1.05;;;0.80;;
31680;SDS011;18281;51.364;9.566;2023-03-23T00:10:58;1.48;;;0.73;;
31680;SDS011;18281;51.364;9.566;2023-03-23T00:13:26;2.20;;;0.77;;
31680;SDS011;18281;51.364;9.566;2023-03-23T00:15:53;0.65;;;0.60;;
31680;SDS011;18281;51.364;9.566;2023-03-23T00:18:19;1.83;;;0.80;;
31680;SDS011;18281;51.364;9.566;2023-03-23T00:20:52;2.28;;;1.15;;
31680;SDS011;18281;51.364;9.566;2023-03-23T00:23:23;0.68;;;0.68;;
31680;SDS011;18281;51.364;9.566;2023-03-23T00:25:53;3.15;;;0.80;;
31680;SDS011;18281;51.364;9.566;2023-03-23T00:28:23;2.80;;;1.00;;
31680;SDS011;18281;51.364;9.566;2023-03-23T00:30:58;2.27;;;0.93;;
31680;SDS011;18281;51.364;9.566;2023-03-23T00:33:26;1.27;;;0.80;;
31680;SDS011;18281;51.364;9.566;2023-03-23T00:35:53;2.20;;;0.80;;
31680;SDS011;18281;51.364;9.566;2023-03-23T00:38:20;1.75;;;0.75;;
31680;SDS011;18281;51.364;9.566;2023-03-23T00:40:47;2.05;;;0.80;;
31680;SDS011;18281;51.364;9.566;2023-03-23T00:43:13;2.92;;;0.82;;
31680;SDS011;18281;51.364;9.566;2023-03-23T00:45:40;1.00;;;0.80;;
31680;SDS011;18281;51.364;9.566;2023-03-23T00:48:05;1.73;;;0.70;;
31680;SDS011;18281;51.364;9.566;2023-03-23T00:50:31;3.47;;;1.00;;
31680;SDS011;18281;51.364;9.566;2023-03-23T00:52:57;2.65;;;1.00;;
31680;SDS011;18281;51.364;9.566;2023-03-23T00:55:23;1.30;;;1.05;;
31680;SDS011;18281;51.364;9.566;2023-03-23T00:57:50;2.72;;;1.02;;
31680;SDS011;18281;51.364;9.566;2023-03-23T01:00:16;2.65;;;0.82;;
31680;SDS011;18281;51.364;9.566;2023-03-23T01:02:43;3.40;;;0.80;;
31680;SDS011;18281;51.364;9.566;2023-03-23T01:05:09;2.20;;;0.90;;
31680;SDS011;18281;51.364;9.566;2023-03-23T01:07:36;3.83;;;1.13;;
31680;SDS011;18281;51.364;9.566;2023-03-23T01:10:02;5.38;;;0.90;;
31680;SDS011;18281;51.364;9.566;2023-03-23T01:12:28;2.10;;;0.93;;
31680;SDS011;18281;51.364;9.566;2023-03-23T01:14:54;3.00;;;1.00;;
31680;SDS011;18281;51.364;9.566;2023-03-23T01:17:20;1.73;;;0.90;;
31680;SDS011;18281;51.364;9.566;2023-03-23T01:19:45;2.72;;;0.85;;
31680;SDS011;18281;51.364;9.566;2023-03-23T01:22:11;2.08;;;0.95;;
31680;SDS011;18281;51.364;9.566;2023-03-23T01:24:36;2.88;;;0.98;;
31680;SDS011;18281;51.364;9.566;2023-03-23T01:27:02;1.55;;;0.80;;
31680;SDS011;18281;51.364;9.566;2023-03-23T01:29:32;2.40;;;0.90;;
31680;SDS011;18281;51.364;9.566;2023-03-23T01:31:58;1.83;;;0.70;;
31680;SDS011;18281;51.364;9.566;2023-03-23T01:34:24;0.85;;;0.85;;
31680;SDS011;18281;51.364;9.566;2023-03-23T01:36:49;1.67;;;0.98;;
31680;SDS011;18281;51.364;9.566;2023-03-23T01:39:15;3.25;;;0.80;;
31680;SDS011;18281;51.364;9.566;2023-03-23T01:41:40;3.83;;;1.08;;
31680;SDS011;18281;51.364;9.566;2023-03-23T01:44:07;1.63;;;1.10;;
31680;SDS011;18281;51.364;9.566;2023-03-23T01:46:53;2.33;;;0.63;;
31680;SDS011;18281;51.364;9.566;2023-03-23T01:49:24;2.13;;;0.90;;
31680;SDS011;18281;51.364;9.566;2023-03-23T01:51:54;5.85;;;1.00;;
31680;SDS011;18281;51.364;9.566;2023-03-23T01:54:35;1.60;;;0.98;;
31680;SDS011;18281;51.364;9.566;2023-03-23T01:57:07;1.85;;;1.00;;
31680;SDS011;18281;51.364;9.566;2023-03-23T01:59:36;1.67;;;0.85;;
31680;SDS011;18281;51.364;9.566;2023-03-23T02:02:02;1.83;;;0.80;;
31680;SDS011;18281;51.364;9.566;2023-03-23T02:04:30;3.55;;;0.75;;
31680;SDS011;18281;51.364;9.566;2023-03-23T02:06:58;3.05;;;0.60;;
31680;SDS011;18281;51.364;9.566;2023-03-23T02:09:26;1.70;;;0.77;;
31680;SDS011;18281;51.364;9.566;2023-03-23T02:11:52;1.40;;;0.75;;
31680;SDS011;18281;51.364;9.566;2023-03-23T02:14:19;1.55;;;0.90;;
31680;SDS011;18281;51.364;9.566;2023-03-23T02:16:55;2.25;;;0.75;;
31680;SDS011;18281;51.364;9.566;2023-03-23T02:28:04;0.90;;;0.65;;
31680;SDS011;18281;51.364;9.566;2023-03-23T02:36:18;2.45;;;0.80;;
31680;SDS011;18281;51.364;9.566;2023-03-23T02:41:22;1.77;;;0.67;;
31680;SDS011;18281;51.364;9.566;2023-03-23T02:43:53;2.03;;;0.80;;
31680;SDS011;18281;51.364;9.566;2023-03-23T02:46:21;1.67;;;0.70;;
31680;SDS011;18281;51.364;9.566;2023-03-23T02:48:48;1.17;;;0.68;;
31680;SDS011;18281;51.364;9.566;2023-03-23T02:51:16;2.05;;;1.00;;
31680;SDS011;18281;51.364;9.566;2023-03-23T02:53:45;1.65;;;0.93;;
31680;SDS011;18281;51.364;9.566;2023-03-23T02:56:14;1.30;;;0.80;;
31680;SDS011;18281;51.364;9.566;2023-03-23T02:58:41;0.70;;;0.70;;
31680;SDS011;18281;51.364;9.566;2023-03-23T03:03:58;2.05;;;0.70;;
31680;SDS011;18281;51.364;9.566;2023-03-23T03:06:36;2.20;;;0.80;;
31680;SDS011;18281;51.364;9.566;2023-03-23T03:09:14;0.63;;;0.63;;
31680;SDS011;18281;51.364;9.566;2023-03-23T03:11:42;1.70;;;0.70;;
31680;SDS011;18281;51.364;9.566;2023-03-23T03:14:32;1.10;;;0.68;;
31680;SDS011;18281;51.364;9.566;2023-03-23T03:19:45;1.25;;;0.52;;
31680;SDS011;18281;51.364;9.566;2023-03-23T03:24:40;2.90;;;0.90;;
31680;SDS011;18281;51.364;9.566;2023-03-23T03:27:14;0.70;;;0.70;;
31680;SDS011;18281;51.364;9.566;2023-03-23T03:29:43;2.30;;;0.90;;
31680;SDS011;18281;51.364;9.566;2023-03-23T03:32:15;1.05;;;0.70;;
31680;SDS011;18281;51.364;9.566;2023-03-23T03:34:46;0.93;;;0.63;;
31680;SDS011;18281;51.364;9.566;2023-03-23T03:37:12;3.35;;;0.80;;
31680;SDS011;18281;51.364;9.566;2023-03-23T03:39:38;2.50;;;0.95;;
31680;SDS011;18281;51.364;9.566;2023-03-23T03:42:04;2.00;;;1.00;;
31680;SDS011;18281;51.364;9.566;2023-03-23T03:44:31;2.38;;;0.82;;
31680;SDS011;18281;51.364;9.566;2023-03-23T03:46:57;1.92;;;0.80;;
31680;SDS011;18281;51.364;9.566;2023-03-23T03:49:22;1.95;;;0.80;;
31680;SDS011;18281;51.364;9.566;2023-03-23T03:51:48;1.88;;;1.08;;
31680;SDS011;18281;51.364;9.566;2023-03-23T03:54:13;3.00;;;1.10;;
31680;SDS011;18281;51.364;9.566;2023-03-23T03:56:40;1.35;;;0.95;;
31680;SDS011;18281;51.364;9.566;2023-03-23T03:59:06;1.27;;;0.80;;
31680;SDS011;18281;51.364;9.566;2023-03-23T04:01:33;1.92;;;0.77;;
31680;SDS011;18281;51.364;9.566;2023-03-23T04:03:59;3.15;;;0.90;;
31680;SDS011;18281;51.364;9.566;2023-03-23T04:06:25;3.70;;;1.10;;
31680;SDS011;18281;51.364;9.566;2023-03-23T04:08:53;2.35;;;0.90;;
31680;SDS011;18281;51.364;9.566;2023-03-23T04:11:21;2.97;;;0.70;;
31680;SDS011;18281;51.364;9.566;2023-03-23T04:13:46;0.90;;;0.90;;
31680;SDS011;18281;51.364;9.566;2023-03-23T04:16:12;2.17;;;0.93;;
31680;SDS011;18281;51.364;9.566;2023-03-23T04:18:40;1.42;;;1.08;;
31680;SDS011;18281;51.364;9.566;2023-03-23T04:21:07;1.77;;;0.90;;
31680;SDS011;18281;51.364;9.566;2023-03-23T04:23:33;1.67;;;1.00;;
31680;SDS011;18281;51.364;9.566;2023-03-23T04:26:00;1.25;;;1.02;;
31680;SDS011;18281;51.364;9.566;2023-03-23T04:28:26;1.42;;;0.98;;
31680;SDS011;18281;51.364;9.566;2023-03-23T04:30:53;1.95;;;1.10;;
31680;SDS011;18281;51.364;9.566;2023-03-23T04:33:19;1.10;;;0.90;;
31680;SDS011;18281;51.364;9.566;2023-03-23T04:35:47;2.00;;;1.42;;
31680;SDS011;18281;51.364;9.566;2023-03-23T04:38:16;1.25;;;1.00;;
31680;SDS011;18281;51.364;9.566;2023-03-23T04:40:45;2.47;;;1.02;;
31680;SDS011;18281;51.364;9.566;2023-03-23T04:43:11;1.85;;;1.23;;
31680;SDS011;18281;51.364;9.566;2023-03-23T04:45:37;2.22;;;1.25;;
31680;SDS011;18281;51.364;9.566;2023-03-23T04:48:06;1.23;;;1.00;;
31680;SDS011;18281;51.364;9.566;2023-03-23T04:50:32;3.55;;;1.17;;
31680;SDS011;18281;51.364;9.566;2023-03-23T04:52:59;2.33;;;1.27;;
31680;SDS011;18281;51.364;9.566;2023-03-23T04:55:29;1.70;;;1.00;;
31680;SDS011;18281;51.364;9.566;2023-03-23T04:57:55;1.63;;;1.10;;
31680;SDS011;18281;51.364;9.566;2023-03-23T05:00:25;1.02;;;0.80;;
31680;SDS011;18281;51.364;9.566;2023-03-23T05:02:50;2.75;;;1.20;;
31680;SDS011;18281;51.364;9.566;2023-03-23T05:05:16;3.65;;;1.23;;
31680;SDS011;18281;51.364;9.566;2023-03-23T05:07:43;1.70;;;0.90;;
31680;SDS011;18281;51.364;9.566;2023-03-23T05:10:09;3.75;;;1.10;;
31680;SDS011;18281;51.364;9.566;2023-03-23T05:12:36;3.38;;;1.27;;
31680;SDS011;18281;51.364;9.566;2023-03-23T05:15:02;2.28;;;1.70;;
31680;SDS011;18281;51.364;9.566;2023-03-23T05:17:28;1.45;;;1.10;;
31680;SDS011;18281;51.364;9.566;2023-03-23T05:19:55;2.22;;;1.10;;
31680;SDS011;18281;51.364;9.566;2023-03-23T05:22:21;2.42;;;1.05;;
31680;SDS011;18281;51.364;9.566;2023-03-23T05:24:47;1.05;;;0.95;;
31680;SDS011;18281;51.364;9.566;2023-03-23T05:27:19;2.30;;;1.00;;
31680;SDS011;18281;51.364;9.566;2023-03-23T05:29:45;1.90;;;0.90;;
31680;SDS011;18281;51.364;9.566;2023-03-23T05:32:13;1.08;;;0.98;;
31680;SDS011;18281;51.364;9.566;2023-03-23T05:34:40;1.40;;;0.75;;
31680;SDS011;18281;51.364;9.566;2023-03-23T05:37:07;3.90;;;1.08;;
31680;SDS011;18281;51.364;9.566;2023-03-23T05:39:34;1.92;;;0.98;;
31680;SDS011;18281;51.364;9.566;2023-03-23T05:42:00;3.83;;;0.98;;
31680;SDS011;18281;51.364;9.566;2023-03-23T05:44:25;3.38;;;1.08;;
31680;SDS011;18281;51.364;9.566;2023-03-23T05:46:51;3.55;;;1.00;;
31680;SDS011;18281;51.364;9.566;2023-03-23T05:49:17;2.65;;;1.00;;
31680;SDS011;18281;51.364;9.566;2023-03-23T05:51:45;1.30;;;0.90;;
31680;SDS011;18281;51.364;9.566;2023-03-23T05:54:11;1.10;;;0.77;;
31680;SDS011;18281;51.364;9.566;2023-03-23T05:56:38;2.70;;;0.98;;
31680;SDS011;18281;51.364;9.566;2023-03-23T05:59:03;1.67;;;1.10;;
31680;SDS011;18281;51.364;9.566;2023-03-23T06:01:29;1.20;;;1.00;;
31680;SDS011;18281;51.364;9.566;2023-03-23T06:03:55;1.00;;;1.00;;
31680;SDS011;18281;51.364;9.566;2023-03-23T06:06:24;1.83;;;1.02;;
31680;SDS011;18281;51.364;9.566;2023-03-23T06:08:50;2.35;;;1.00;;
31680;SDS011;18281;51.364;9.566;2023-03-23T06:11:16;2.65;;;0.90;;
31680;SDS011;18281;51.364;9.566;2023-03-23T06:13:42;2.65;;;1.05;;
31680;SDS011;18281;51.364;9.566;2023-03-23T06:16:08;2.05;;;1.10;;
31680;SDS011;18281;51.364;9.566;2023-03-23T06:18:34;1.92;;;0.90;;
31680;SDS011;18281;51.364;9.566;2023-03-23T06:21:02;1.08;;;0.93;;
31680;SDS011;18281;51.364;9.566;2023-03-23T06:23:27;3.22;;;1.10;;
31680;SDS011;18281;51.364;9.566;2023-03-23T06:25:54;1.65;;;0.98;;
31680;SDS011;18281;51.364;9.566;2023-03-23T06:28:22;1.02;;;0.88;;
31680;SDS011;18281;51.364;9.566;2023-03-23T06:30:48;1.00;;;0.77;;
31680;SDS011;18281;51.364;9.566;2023-03-23T06:33:13;0.82;;;0.82;;
31680;SDS011;18281;51.364;9.566;2023-03-23T06:35:39;2.20;;;1.00;;
31680;SDS011;18281;51.364;9.566;2023-03-23T06:38:04;2.75;;;0.77;;
31680;SDS011;18281;51.364;9.566;2023-03-23T06:40:29;1.42;;;0.82;;
31680;SDS011;18281;51.364;9.566;2023-03-23T06:42:59;1.20;;;1.08;;
31680;SDS011;18281;51.364;9.566;2023-03-23T06:45:25;1.08;;;0.98;;
31680;SDS011;18281;51.364;9.566;2023-03-23T06:47:51;1.17;;;0.90;;
31680;SDS011;18281;51.364;9.566;2023-03-23T06:50:17;4.32;;;1.02;;
31680;SDS011;18281;51.364;9.566;2023-03-23T06:52:49;1.25;;;1.02;;
31680;SDS011;18281;51.364;9.566;2023-03-23T06:55:16;3.33;;;1.00;;
31680;SDS011;18281;51.364;9.566;2023-03-23T06:57:42;5.63;;;1.00;;
31680;SDS011;18281;51.364;9.566;2023-03-23T07:00:09;1.02;;;0.85;;
31680;SDS011;18281;51.364;9.566;2023-03-23T07:05:07;4.40;;;1.25;;
31680;SDS011;18281;51.364;9.566;2023-03-23T07:07:34;1.83;;;1.15;;
31680;SDS011;18281;51.364;9.566;2023-03-23T07:10:00;2.33;;;1.55;;
31680;SDS011;18281;51.364;9.566;2023-03-23T07:12:27;1.67;;;1.20;;
31680;SDS011;18281;51.364;9.566;2023-03-23T07:14:53;1.58;;;1.27;;
31680;SDS011;18281;51.364;9.566;2023-03-23T07:17:19;2.70;;;1.02;;
31680;SDS011;18281;51.364;9.566;2023-03-23T07:19:44;2.00;;;1.13;;
31680;SDS011;18281;51.364;9.566;2023-03-23T07:22:11;2.35;;;1.60;;
31680;SDS011;18281;51.364;9.566;2023-03-23T07:24:36;1.20;;;1.00;;
31680;SDS011;18281;51.364;9.566;2023-03-23T07:27:02;3.33;;;1.90;;
31680;SDS011;18281;51.364;9.566;2023-03-23T07:29:27;3.30;;;1.08;;
31680;SDS011;18281;51.364;9.566;2023-03-23T07:31:53;2.45;;;1.13;;
31680;SDS011;18281;51.364;9.566;2023-03-23T07:34:19;1.45;;;1.23;;
31680;SDS011;18281;51.364;9.566;2023-03-23T07:36:45;2.20;;;1.10;;
31680;SDS011;18281;51.364;9.566;2023-03-23T07:39:11;1.80;;;1.20;;
31680;SDS011;18281;51.364;9.566;2023-03-23T07:41:37;1.90;;;1.50;;
31680;SDS011;18281;51.364;9.566;2023-03-23T07:44:03;2.22;;;1.40;;
31680;SDS011;18281;51.364;9.566;2023-03-23T07:46:29;1.33;;;1.02;;
31680;SDS011;18281;51.364;9.566;2023-03-23T07:48:55;2.15;;;1.38;;
31680;SDS011;18281;51.364;9.566;2023-03-23T07:51:21;2.95;;;1.30;;
31680;SDS011;18281;51.364;9.566;2023-03-23T07:53:47;1.60;;;1.50;;
31680;SDS011;18281;51.364;9.566;2023-03-23T07:56:13;2.33;;;1.13;;
31680;SDS011;18281;51.364;9.566;2023-03-23T07:58:40;2.83;;;1.52;;
31680;SDS011;18281;51.364;9.566;2023-03-23T08:01:06;3.55;;;1.35;;
31680;SDS011;18281;51.364;9.566;2023-03-23T08:03:32;2.90;;;1.23;;
31680;SDS011;18281;51.364;9.566;2023-03-23T08:05:58;2.97;;;1.27;;
31680;SDS011;18281;51.364;9.566;2023-03-23T08:08:24;1.20;;;1.10;;
31680;SDS011;18281;51.364;9.566;2023-03-23T08:10:50;2.65;;;1.45;;
31680;SDS011;18281;51.364;9.566;2023-03-23T08:13:15;2.13;;;1.20;;
31680;SDS011;18281;51.364;9.566;2023-03-23T08:15:41;1.38;;;1.27;;
31680;SDS011;18281;51.364;9.566;2023-03-23T08:18:06;3.50;;;1.23;;
31680;SDS011;18281;51.364;9.566;2023-03-23T08:20:33;1.40;;;1.30;;
31680;SDS011;18281;51.364;9.566;2023-03-23T08:22:58;3.03;;;1.50;;
31680;SDS011;18281;51.364;9.566;2023-03-23T08:25:24;3.45;;;2.40;;
31680;SDS011;18281;51.364;9.566;2023-03-23T08:27:51;4.82;;;2.45;;
31680;SDS011;18281;51.364;9.566;2023-03-23T08:30:18;5.90;;;3.83;;
31680;SDS011;18281;51.364;9.566;2023-03-23T08:32:45;4.68;;;2.88;;
31680;SDS011;18281;51.364;9.566;2023-03-23T08:35:12;2.78;;;2.58;;
31680;SDS011;18281;51.364;9.566;2023-03-23T08:37:38;3.47;;;2.40;;
31680;SDS011;18281;51.364;9.566;2023-03-23T08:40:03;3.05;;;2.17;;
31680;SDS011;18281;51.364;9.566;2023-03-23T08:42:39;3.25;;;1.95;;
31680;SDS011;18281;51.364;9.566;2023-03-23T08:45:06;2.53;;;1.70;;
31680;SDS011;18281;51.364;9.566;2023-03-23T08:47:33;1.85;;;1.35;;
31680;SDS011;18281;51.364;9.566;2023-03-23T08:50:00;1.60;;;1.42;;
31680;SDS011;18281;51.364;9.566;2023-03-23T08:52:27;3.17;;;1.30;;
31680;SDS011;18281;51.364;9.566;2023-03-23T08:54:53;10.15;;;2.78;;
31680;SDS011;18281;51.364;9.566;2023-03-23T08:57:18;16.88;;;4.43;;
31680;SDS011;18281;51.364;9.566;2023-03-23T08:59:44;12.35;;;3.20;;
31680;SDS011;18281;51.364;9.566;2023-03-23T09:02:10;10.38;;;2.42;;
31680;SDS011;18281;51.364;9.566;2023-03-23T09:04:37;7.78;;;2.50;;
31680;SDS011;18281;51.364;9.566;2023-03-23T09:07:03;7.68;;;3.25;;
31680;SDS011;18281;51.364;9.566;2023-03-23T09:09:28;3.40;;;1.35;;
31680;SDS011;18281;51.364;9.566;2023-03-23T09:11:54;3.08;;;1.30;;
31680;SDS011;18281;51.364;9.566;2023-03-23T09:14:19;2.92;;;1.60;;
31680;SDS011;18281;51.364;9.566;2023-03-23T09:16:45;1.50;;;1.40;;
31680;SDS011;18281;51.364;9.566;2023-03-23T09:19:10;20.55;;;2.13;;
31680;SDS011;18281;51.364;9.566;2023-03-23T09:21:37;21.30;;;3.33;;
31680;SDS011;18281;51.364;9.566;2023-03-23T09:24:03;16.92;;;3.35;;
31680;SDS011;18281;51.364;9.566;2023-03-23T09:26:30;11.77;;;2.63;;
31680;SDS011;18281;51.364;9.566;2023-03-23T09:28:56;6.90;;;2.53;;
31680;SDS011;18281;51.364;9.566;2023-03-23T09:31:21;10.80;;;2.33;;
31680;SDS011;18281;51.364;9.566;2023-03-23T09:33:47;8.98;;;2.42;;
31680;SDS011;18281;51.364;9.566;2023-03-23T09:36:16;5.22;;;1.48;;
31680;SDS011;18281;51.364;9.566;2023-03-23T09:38:43;9.30;;;1.55;;
31680;SDS011;18281;51.364;9.566;2023-03-23T09:46:48;1.20;;;1.10;;
31680;SDS011;18281;51.364;9.566;2023-03-23T09:49:32;3.20;;;1.20;;
31680;SDS011;18281;51.364;9.566;2023-03-23T09:52:14;2.63;;;1.30;;
31680;SDS011;18281;51.364;9.566;2023-03-23T09:54:59;3.53;;;1.27;;
31680;SDS011;18281;51.364;9.566;2023-03-23T10:02:56;3.72;;;1.40;;
31680;SDS011;18281;51.364;9.566;2023-03-23T10:08:17;1.25;;;1.00;;
31680;SDS011;18281;51.364;9.566;2023-03-23T10:16:40;1.30;;;0.90;;
31680;SDS011;18281;51.364;9.566;2023-03-23T10:19:17;3.22;;;0.93;;
31680;SDS011;18281;51.364;9.566;2023-03-23T10:21:52;2.80;;;0.98;;
31680;SDS011;18281;51.364;9.566;2023-03-23T10:24:27;3.08;;;1.00;;
31680;SDS011;18281;51.364;9.566;2023-03-23T10:27:11;1.90;;;0.90;;
31680;SDS011;18281;51.364;9.566;2023-03-23T10:29:46;5.38;;;1.45;;
31680;SDS011;18281;51.364;9.566;2023-03-23T10:32:18;6.13;;;1.73;;
31680;SDS011;18281;51.364;9.566;2023-03-23T10:35:05;11.30;;;1.63;;
31680;SDS011;18281;51.364;9.566;2023-03-23T10:37:38;6.03;;;1.30;;
31680;SDS011;18281;51.364;9.566;2023-03-23T10:40:12;4.80;;;1.25;;
31680;SDS011;18281;51.364;9.566;2023-03-23T10:42:41;5.13;;;1.30;;
31680;SDS011;18281;51.364;9.566;2023-03-23T10:47:43;0.75;;;0.70;;
31680;SDS011;18281;51.364;9.566;2023-03-23T10:50:14;4.75;;;1.00;;
31680;SDS011;18281;51.364;9.566;2023-03-23T10:52:42;1.80;;;1.08;;
31680;SDS011;18281;51.364;9.566;2023-03-23T10:55:17;5.28;;;1.02;;
31680;SDS011;18281;51.364;9.566;2023-03-23T10:57:58;2.22;;;1.00;;
31680;SDS011;18281;51.364;9.566;2023-03-23T11:00:26;4.05;;;0.98;;
31680;SDS011;18281;51.364;9.566;2023-03-23T11:03:05;3.30;;;1.15;;
31680;SDS011;18281;51.364;9.566;2023-03-23T11:05:54;2.03;;;0.93;;
31680;SDS011;18281;51.364;9.566;2023-03-23T11:08:24;8.93;;;1.40;;
31680;SDS011;18281;51.364;9.566;2023-03-23T11:10:57;3.30;;;1.00;;
31680;SDS011;18281;51.364;9.566;2023-03-23T11:13:39;2.63;;;1.00;;
31680;SDS011;18281;51.364;9.566;2023-03-23T11:16:10;3.60;;;1.90;;
31680;SDS011;18281;51.364;9.566;2023-03-23T11:18:47;2.00;;;1.50;;
31680;SDS011;18281;51.364;9.566;2023-03-23T11:21:14;3.33;;;1.33;;
31680;SDS011;18281;51.364;9.566;2023-03-23T11:23:41;5.00;;;1.27;;
31680;SDS011;18281;51.364;9.566;2023-03-23T11:26:23;2.00;;;1.02;;
31680;SDS011;18281;51.364;9.566;2023-03-23T11:29:11;4.72;;;0.80;;
31680;SDS011;18281;51.364;9.566;2023-03-23T11:31:40;3.72;;;1.10;;
31680;SDS011;18281;51.364;9.566;2023-03-23T11:36:43;3.65;;;1.80;;
31680;SDS011;18281;51.364;9.566;2023-03-23T11:39:21;2.42;;;1.52;;
31680;SDS011;18281;51.364;9.566;2023-03-23T11:41:48;2.72;;;1.48;;
31680;SDS011;18281;51.364;9.566;2023-03-23T11:44:13;5.00;;;1.40;;
31680;SDS011;18281;51.364;9.566;2023-03-23T11:46:42;1.40;;;1.05;;
31680;SDS011;18281;51.364;9.566;2023-03-23T11:54:58;4.28;;;1.60;;
31680;SDS011;18281;51.364;9.566;2023-03-23T11:57:32;1.67;;;1.08;;
31680;SDS011;18281;51.364;9.566;2023-03-23T11:59:57;10.15;;;2.17;;
31680;SDS011;18281;51.364;9.566;2023-03-23T12:08:13;7.53;;;2.00;;
31680;SDS011;18281;51.364;9.566;2023-03-23T12:10:44;2.88;;;1.50;;
31680;SDS011;18281;51.364;9.566;2023-03-23T12:13:38;4.43;;;1.75;;
31680;SDS011;18281;51.364;9.566;2023-03-23T12:16:20;5.53;;;1.73;;
31680;SDS011;18281;51.364;9.566;2023-03-23T12:21:28;7.22;;;1.55;;
31680;SDS011;18281;51.364;9.566;2023-03-23T12:29:59;2.50;;;1.25;;
31680;SDS011;18281;51.364;9.566;2023-03-23T12:35:47;2.40;;;0.70;;
31680;SDS011;18281;51.364;9.566;2023-03-23T12:38:40;3.03;;;1.13;;
31680;SDS011;18281;51.364;9.566;2023-03-23T12:41:18;2.42;;;0.75;;
31680;SDS011;18281;51.364;9.566;2023-03-23T12:43:52;1.17;;;0.98;;
31680;SDS011;18281;51.364;9.566;2023-03-23T12:51:50;1.48;;;0.52;;
31680;SDS011;18281;51.364;9.566;2023-03-23T12:54:26;1.90;;;0.68;;
31680;SDS011;18281;51.364;9.566;2023-03-23T12:56:58;1.15;;;0.65;;
31680;SDS011;18281;51.364;9.566;2023-03-23T13:02:21;1.85;;;0.65;;
31680;SDS011;18281;51.364;9.566;2023-03-23T13:04:59;2.97;;;0.70;;
31680;SDS011;18281;51.364;9.566;2023-03-23T13:07:32;2.83;;;1.17;;
31680;SDS011;18281;51.364;9.566;2023-03-23T13:10:05;2.72;;;1.30;;
31680;SDS011;18281;51.364;9.566;2023-03-23T13:12:47;1.75;;;0.90;;
31680;SDS011;18281;51.364;9.566;2023-03-23T13:17:51;0.95;;;0.60;;
31680;SDS011;18281;51.364;9.566;2023-03-23T13:20:37;2.28;;;0.60;;
31680;SDS011;18281;51.364;9.566;2023-03-23T13:26:07;1.47;;;0.53;;
31680;SDS011;18281;51.364;9.566;2023-03-23T13:28:54;0.80;;;0.63;;
31680;SDS011;18281;51.364;9.566;2023-03-23T13:31:32;1.27;;;0.70;;
31680;SDS011;18281;51.364;9.566;2023-03-23T13:34:04;0.98;;;0.50;;
31680;SDS011;18281;51.364;9.566;2023-03-23T13:39:06;1.05;;;0.68;;
31680;SDS011;18281;51.364;9.566;2023-03-23T13:42:18;1.38;;;0.80;;
31680;SDS011;18281;51.364;9.566;2023-03-23T13:44:54;1.00;;;0.60;;
31680;SDS011;18281;51.364;9.566;2023-03-23T14:05:48;1.20;;;1.00;;
31680;SDS011;18281;51.364;9.566;2023-03-23T14:10:42;3.95;;;1.48;;
31680;SDS011;18281;51.364;9.566;2023-03-23T14:13:24;3.70;;;0.90;;
31680;SDS011;18281;51.364;9.566;2023-03-23T14:18:23;4.13;;;2.25;;
31680;SDS011;18281;51.364;9.566;2023-03-23T14:20:51;2.47;;;1.02;;
31680;SDS011;18281;51.364;9.566;2023-03-23T14:23:18;3.17;;;1.02;;
31680;SDS011;18281;51.364;9.566;2023-03-23T14:25:44;2.63;;;1.52;;
31680;SDS011;18281;51.364;9.566;2023-03-23T14:28:20;5.65;;;1.50;;
31680;SDS011;18281;51.364;9.566;2023-03-23T14:30:47;1.80;;;1.65;;
31680;SDS011;18281;51.364;9.566;2023-03-23T14:33:17;5.82;;;3.38;;
31680;SDS011;18281;51.364;9.566;2023-03-23T14:35:44;6.97;;;3.10;;
31680;SDS011;18281;51.364;9.566;2023-03-23T14:38:15;1.80;;;1.55;;
31680;SDS011;18281;51.364;9.566;2023-03-23T14:40:45;2.80;;;1.15;;
31680;SDS011;18281;51.364;9.566;2023-03-23T14:43:12;1.75;;;1.00;;
31680;SDS011;18281;51.364;9.566;2023-03-23T14:45:41;1.60;;;0.73;;
31680;SDS011;18281;51.364;9.566;2023-03-23T14:48:07;0.85;;;0.60;;
31680;SDS011;18281;51.364;9.566;2023-03-23T14:53:31;2.05;;;1.50;;
31680;SDS011;18281;51.364;9.566;2023-03-23T14:56:02;1.08;;;0.98;;
31680;SDS011;18281;51.364;9.566;2023-03-23T14:58:34;2.28;;;0.93;;
31680;SDS011;18281;51.364;9.566;2023-03-23T15:01:02;1.88;;;1.20;;
31680;SDS011;18281;51.364;9.566;2023-03-23T15:03:36;1.90;;;0.70;;
31680;SDS011;18281;51.364;9.566;2023-03-23T15:06:13;1.15;;;0.90;;
31680;SDS011;18281;51.364;9.566;2023-03-23T15:08:42;2.45;;;1.20;;
31680;SDS011;18281;51.364;9.566;2023-03-23T15:13:50;2.83;;;1.85;;
31680;SDS011;18281;51.364;9.566;2023-03-23T15:16:32;6.25;;;4.40;;
31680;SDS011;18281;51.364;9.566;2023-03-23T15:21:30;1.45;;;1.35;;
31680;SDS011;18281;51.364;9.566;2023-03-23T15:24:00;2.45;;;1.08;;
31680;SDS011;18281;51.364;9.566;2023-03-23T15:31:49;2.13;;;1.05;;
31680;SDS011;18281;51.364;9.566;2023-03-23T15:36:52;2.35;;;1.20;;
31680;SDS011;18281;51.364;9.566;2023-03-23T15:39:22;3.53;;;1.30;;
31680;SDS011;18281;51.364;9.566;2023-03-23T15:41:48;1.80;;;1.08;;
31680;SDS011;18281;51.364;9.566;2023-03-23T15:44:26;1.30;;;1.10;;
31680;SDS011;18281;51.364;9.566;2023-03-23T15:47:02;1.40;;;1.10;;
31680;SDS011;18281;51.364;9.566;2023-03-23T15:49:58;3.50;;;0.98;;
31680;SDS011;18281;51.364;9.566;2023-03-23T15:52:26;1.30;;;0.90;;
31680;SDS011;18281;51.364;9.566;2023-03-23T15:54:52;1.70;;;0.80;;
31680;SDS011;18281;51.364;9.566;2023-03-23T15:57:17;1.70;;;0.70;;
31680;SDS011;18281;51.364;9.566;2023-03-23T15:59:42;1.35;;;0.55;;
31680;SDS011;18281;51.364;9.566;2023-03-23T16:02:19;2.63;;;0.77;;
31680;SDS011;18281;51.364;9.566;2023-03-23T16:04:47;0.68;;;0.60;;
31680;SDS011;18281;51.364;9.566;2023-03-23T16:07:14;2.40;;;0.80;;
31680;SDS011;18281;51.364;9.566;2023-03-23T16:09:39;2.55;;;0.57;;
31680;SDS011;18281;51.364;9.566;2023-03-23T16:12:11;1.95;;;0.82;;
31680;SDS011;18281;51.364;9.566;2023-03-23T16:14:37;1.20;;;0.60;;
31680;SDS011;18281;51.364;9.566;2023-03-23T16:17:03;2.17;;;0.60;;
31680;SDS011;18281;51.364;9.566;2023-03-23T16:19:29;1.55;;;1.02;;
31680;SDS011;18281;51.364;9.566;2023-03-23T16:21:55;1.85;;;0.63;;
31680;SDS011;18281;51.364;9.566;2023-03-23T16:24:21;1.23;;;0.70;;
31680;SDS011;18281;51.364;9.566;2023-03-23T16:26:46;4.85;;;2.88;;
31680;SDS011;18281;51.364;9.566;2023-03-23T16:29:13;4.47;;;1.83;;
31680;SDS011;18281;51.364;9.566;2023-03-23T16:31:40;2.30;;;1.75;;
31680;SDS011;18281;51.364;9.566;2023-03-23T16:34:05;1.98;;;1.20;;
31680;SDS011;18281;51.364;9.566;2023-03-23T16:36:32;1.83;;;1.17;;
31680;SDS011;18281;51.364;9.566;2023-03-23T16:38:58;2.15;;;0.90;;
31680;SDS011;18281;51.364;9.566;2023-03-23T16:41:23;2.67;;;1.20;;
31680;SDS011;18281;51.364;9.566;2023-03-23T16:43:48;1.02;;;0.70;;
31680;SDS011;18281;51.364;9.566;2023-03-23T16:46:14;0.90;;;0.55;;
31680;SDS011;18281;51.364;9.566;2023-03-23T16:48:39;4.88;;;1.17;;
31680;SDS011;18281;51.364;9.566;2023-03-23T16:51:05;1.85;;;1.02;;
31680;SDS011;18281;51.364;9.566;2023-03-23T16:53:31;1.02;;;0.85;;
31680;SDS011;18281;51.364;9.566;2023-03-23T16:55:56;1.58;;;0.93;;
31680;SDS011;18281;51.364;9.566;2023-03-23T16:58:22;1.23;;;0.90;;
31680;SDS011;18281;51.364;9.566;2023-03-23T17:00:49;8.55;;;2.50;;
31680;SDS011;18281;51.364;9.566;2023-03-23T17:03:16;4.32;;;2.10;;
31680;SDS011;18281;51.364;9.566;2023-03-23T17:05:43;5.68;;;1.83;;
31680;SDS011;18281;51.364;9.566;2023-03-23T17:08:09;4.60;;;1.00;;
31680;SDS011;18281;51.364;9.566;2023-03-23T17:10:36;3.13;;;1.00;;